UKV770 EGCC-LEBB
Flight info
| Callsign | UKV770 |
|---|---|
| Flight time | 1h 59m |
| Altitude | 23000 |
| Route | KUXEM P17 BEPHE/N0452F380 DCT OSSEP DCT OXCUD DCT ELNIF DCT ZESPE DCT KLAKI DCT SALCO/N0449F370 DCT NENEM N867 MAPAX |
| Aircraft | A320/M-SDE3FGIKRWXY/S |
Departure
| Time | 2026-05-07 20:00 |
|---|---|
| Airport | Manchester Airport (EGCC) |
Arrival
| Time | 2026-05-07 22:00 |
|---|---|
| Airport | Bilbao Airport (LEBB) |
| Time | Latitude | Longitude | Altitude | Speed | Heading |
|---|---|---|---|---|---|
| 2026-05-07 19:20 | 53.36820 | -2.28629 | 255 ft | 0 kts | 315° |
| 2026-05-07 19:45 | 53.36808 | -2.28609 | 255 ft | 4 kts | 315° |
| 2026-05-07 19:45 | 53.36798 | -2.28593 | 255 ft | 3 kts | 314° |
| 2026-05-07 19:45 | 53.36790 | -2.28570 | 255 ft | 4 kts | 233° |
| 2026-05-07 19:46 | 53.36807 | -2.28539 | 255 ft | 4 kts | 224° |
| 2026-05-07 19:46 | 53.36812 | -2.28531 | 255 ft | 0 kts | 224° |
| 2026-05-07 19:51 | 53.36807 | -2.28538 | 255 ft | 3 kts | 217° |
| 2026-05-07 19:51 | 53.36771 | -2.28571 | 255 ft | 9 kts | 209° |
| 2026-05-07 19:52 | 53.36707 | -2.28666 | 255 ft | 15 kts | 225° |
| 2026-05-07 19:52 | 53.36623 | -2.28780 | 255 ft | 14 kts | 198° |
| 2026-05-07 19:52 | 53.36547 | -2.28702 | 255 ft | 14 kts | 135° |
| 2026-05-07 19:52 | 53.36515 | -2.28649 | 255 ft | 1 kts | 134° |
| 2026-05-07 19:53 | 53.36484 | -2.28595 | 255 ft | 13 kts | 135° |
| 2026-05-07 19:53 | 53.36410 | -2.28489 | 255 ft | 15 kts | 154° |
| 2026-05-07 19:53 | 53.36317 | -2.28420 | 255 ft | 16 kts | 133° |
| 2026-05-07 19:53 | 53.36229 | -2.28270 | 255 ft | 21 kts | 137° |
| 2026-05-07 19:54 | 53.36113 | -2.28080 | 255 ft | 26 kts | 136° |
| 2026-05-07 19:54 | 53.35980 | -2.27888 | 255 ft | 17 kts | 143° |
| 2026-05-07 19:54 | 53.35872 | -2.27836 | 254 ft | 16 kts | 154° |
| 2026-05-07 19:54 | 53.35801 | -2.27709 | 251 ft | 13 kts | 131° |
| 2026-05-07 19:55 | 53.35719 | -2.27631 | 248 ft | 14 kts | 159° |
| 2026-05-07 19:55 | 53.35646 | -2.27557 | 246 ft | 9 kts | 141° |
| 2026-05-07 19:55 | 53.35622 | -2.27449 | 246 ft | 12 kts | 58° |
| 2026-05-07 19:55 | 53.35669 | -2.27354 | 254 ft | 8 kts | 50° |
| 2026-05-07 19:56 | 53.35712 | -2.27267 | 255 ft | 12 kts | 51° |
| 2026-05-07 19:56 | 53.35778 | -2.27131 | 255 ft | 18 kts | 51° |
| 2026-05-07 19:56 | 53.35859 | -2.26930 | 256 ft | 23 kts | 56° |
| 2026-05-07 19:56 | 53.35963 | -2.26688 | 256 ft | 28 kts | 54° |
| 2026-05-07 19:57 | 53.36088 | -2.26433 | 256 ft | 19 kts | 54° |
| 2026-05-07 19:57 | 53.36139 | -2.26326 | 255 ft | 9 kts | 50° |
| 2026-05-07 19:57 | 53.36200 | -2.26235 | 255 ft | 15 kts | 38° |
| 2026-05-07 19:57 | 53.36262 | -2.26114 | 255 ft | 15 kts | 59° |
| 2026-05-07 19:58 | 53.36271 | -2.26049 | 255 ft | 0 kts | 91° |
| 2026-05-07 19:58 | 53.36275 | -2.25975 | 255 ft | 24 kts | 75° |
| 2026-05-07 19:58 | 53.36276 | -2.25797 | 258 ft | 12 kts | 131° |
| 2026-05-07 19:59 | 53.36219 | -2.25763 | 260 ft | 8 kts | 204° |
| 2026-05-07 19:59 | 53.36157 | -2.25877 | 259 ft | 15 kts | 231° |
| 2026-05-07 19:59 | 53.36091 | -2.26010 | 257 ft | 13 kts | 230° |
| 2026-05-07 19:59 | 53.36066 | -2.26060 | 256 ft | 7 kts | 230° |
| 2026-05-07 20:00 | 53.35871 | -2.26466 | 270 ft | 81 kts | 232° |
| 2026-05-07 20:00 | 53.35382 | -2.27482 | 243 ft | 141 kts | 231° |
| 2026-05-07 20:00 | 53.34692 | -2.28928 | 489 ft | 167 kts | 231° |
| 2026-05-07 20:00 | 53.33946 | -2.30482 | 1108 ft | 175 kts | 229° |
| 2026-05-07 20:01 | 53.33197 | -2.32050 | 1943 ft | 171 kts | 227° |
| 2026-05-07 20:01 | 53.32468 | -2.33716 | 2420 ft | 193 kts | 241° |
| 2026-05-07 20:01 | 53.32222 | -2.36106 | 2818 ft | 224 kts | 268° |
| 2026-05-07 20:01 | 53.32282 | -2.38844 | 3270 ft | 248 kts | 269° |
| 2026-05-07 20:02 | 53.32365 | -2.41789 | 4025 ft | 257 kts | 269° |
| 2026-05-07 20:02 | 53.32307 | -2.44747 | 4817 ft | 257 kts | 255° |
| 2026-05-07 20:02 | 53.31834 | -2.47664 | 5163 ft | 262 kts | 251° |
| 2026-05-07 20:02 | 53.31311 | -2.50564 | 6180 ft | 259 kts | 251° |
| 2026-05-07 20:03 | 53.30774 | -2.53448 | 7140 ft | 260 kts | 251° |
| 2026-05-07 20:03 | 53.30231 | -2.56345 | 8045 ft | 263 kts | 251° |
| 2026-05-07 20:03 | 53.29642 | -2.59248 | 8949 ft | 265 kts | 245° |
| 2026-05-07 20:03 | 53.28910 | -2.62090 | 9822 ft | 268 kts | 242° |
| 2026-05-07 20:04 | 53.27923 | -2.64743 | 10576 ft | 269 kts | 225° |
| 2026-05-07 20:04 | 53.26471 | -2.66726 | 11195 ft | 279 kts | 213° |
| 2026-05-07 20:04 | 53.24796 | -2.68612 | 11445 ft | 302 kts | 214° |
| 2026-05-07 20:04 | 53.22994 | -2.70657 | 11731 ft | 322 kts | 214° |
| 2026-05-07 20:05 | 53.21120 | -2.72801 | 12312 ft | 330 kts | 214° |
| 2026-05-07 20:05 | 53.19212 | -2.74993 | 13011 ft | 335 kts | 214° |
| 2026-05-07 20:05 | 53.17278 | -2.77221 | 13700 ft | 341 kts | 215° |
| 2026-05-07 20:05 | 53.15287 | -2.79515 | 14337 ft | 345 kts | 215° |
| 2026-05-07 20:06 | 53.13304 | -2.81801 | 14986 ft | 349 kts | 215° |
| 2026-05-07 20:06 | 53.11323 | -2.84075 | 15628 ft | 352 kts | 214° |
| 2026-05-07 20:06 | 53.09151 | -2.85980 | 16255 ft | 356 kts | 202° |
| 2026-05-07 20:06 | 53.06751 | -2.87074 | 16878 ft | 361 kts | 190° |
| 2026-05-07 20:07 | 53.04229 | -2.87279 | 17502 ft | 366 kts | 178° |
| 2026-05-07 20:07 | 53.01689 | -2.86681 | 18116 ft | 371 kts | 172° |
| 2026-05-07 20:07 | 52.99136 | -2.85972 | 18676 ft | 374 kts | 172° |
| 2026-05-07 20:07 | 52.96557 | -2.85265 | 19190 ft | 377 kts | 172° |
| 2026-05-07 20:08 | 52.93966 | -2.84561 | 19705 ft | 380 kts | 173° |
| 2026-05-07 20:08 | 52.91344 | -2.83855 | 20220 ft | 383 kts | 173° |
| 2026-05-07 20:08 | 52.88703 | -2.83148 | 20730 ft | 386 kts | 173° |
| 2026-05-07 20:08 | 52.86045 | -2.82439 | 21236 ft | 389 kts | 173° |
| 2026-05-07 20:09 | 52.83365 | -2.81724 | 21730 ft | 392 kts | 173° |
| 2026-05-07 20:09 | 52.80663 | -2.81001 | 22215 ft | 394 kts | 173° |
| 2026-05-07 20:09 | 52.77946 | -2.80267 | 22700 ft | 397 kts | 173° |
| 2026-05-07 20:10 | 52.72485 | -2.78799 | 23631 ft | 403 kts | 173° |
| 2026-05-07 20:10 | 52.69710 | -2.78055 | 24041 ft | 405 kts | 173° |
| 2026-05-07 20:10 | 52.66920 | -2.77305 | 24440 ft | 407 kts | 173° |
| 2026-05-07 20:10 | 52.64115 | -2.76552 | 24822 ft | 410 kts | 173° |
| 2026-05-07 20:11 | 52.61289 | -2.75944 | 25201 ft | 410 kts | 179° |
| 2026-05-07 20:11 | 52.58435 | -2.76001 | 25567 ft | 411 kts | 185° |
| 2026-05-07 20:11 | 52.55577 | -2.76258 | 25936 ft | 413 kts | 185° |
| 2026-05-07 20:11 | 52.52701 | -2.76517 | 26308 ft | 415 kts | 185° |
| 2026-05-07 20:12 | 52.49809 | -2.76776 | 26674 ft | 417 kts | 185° |
| 2026-05-07 20:12 | 52.46907 | -2.77032 | 27036 ft | 419 kts | 185° |
| 2026-05-07 20:12 | 52.44026 | -2.77282 | 27402 ft | 421 kts | 185° |
| 2026-05-07 20:12 | 52.41094 | -2.77534 | 27756 ft | 423 kts | 185° |
| 2026-05-07 20:13 | 52.38146 | -2.77787 | 28106 ft | 425 kts | 185° |
| 2026-05-07 20:13 | 52.35184 | -2.78044 | 28436 ft | 427 kts | 185° |
| 2026-05-07 20:13 | 52.32208 | -2.78302 | 28767 ft | 429 kts | 185° |
| 2026-05-07 20:13 | 52.29219 | -2.78563 | 29080 ft | 431 kts | 185° |
| 2026-05-07 20:14 | 52.26212 | -2.78820 | 29393 ft | 433 kts | 185° |
| 2026-05-07 20:14 | 52.23199 | -2.79075 | 29710 ft | 435 kts | 184° |
| 2026-05-07 20:14 | 52.20170 | -2.79330 | 30039 ft | 436 kts | 184° |
| 2026-05-07 20:14 | 52.17138 | -2.79587 | 30303 ft | 438 kts | 184° |
| 2026-05-07 20:15 | 52.14091 | -2.79849 | 30632 ft | 438 kts | 185° |
| 2026-05-07 20:15 | 52.11059 | -2.80112 | 31001 ft | 436 kts | 185° |
| 2026-05-07 20:15 | 52.08030 | -2.80373 | 31360 ft | 435 kts | 185° |
| 2026-05-07 20:15 | 52.05052 | -2.80624 | 31718 ft | 434 kts | 185° |
| 2026-05-07 20:16 | 52.02039 | -2.80875 | 32087 ft | 433 kts | 185° |
| 2026-05-07 20:16 | 51.99036 | -2.81125 | 32452 ft | 431 kts | 185° |
| 2026-05-07 20:16 | 51.96039 | -2.81375 | 32830 ft | 430 kts | 185° |
| 2026-05-07 20:16 | 51.93056 | -2.81625 | 33198 ft | 429 kts | 185° |
| 2026-05-07 20:17 | 51.90076 | -2.81877 | 33572 ft | 428 kts | 185° |
| 2026-05-07 20:17 | 51.87109 | -2.82129 | 33935 ft | 427 kts | 185° |
| 2026-05-07 20:17 | 51.84146 | -2.82437 | 34252 ft | 426 kts | 187° |
| 2026-05-07 20:17 | 51.81201 | -2.82938 | 34519 ft | 425 kts | 189° |
| 2026-05-07 20:18 | 51.78266 | -2.83583 | 34769 ft | 426 kts | 190° |
| 2026-05-07 20:18 | 51.75337 | -2.84295 | 35002 ft | 426 kts | 190° |
| 2026-05-07 20:18 | 51.72404 | -2.85016 | 35240 ft | 427 kts | 190° |
| 2026-05-07 20:18 | 51.69467 | -2.85709 | 35460 ft | 427 kts | 189° |
| 2026-05-07 20:19 | 51.66516 | -2.86378 | 35681 ft | 428 kts | 189° |
| 2026-05-07 20:19 | 51.63564 | -2.87019 | 35895 ft | 429 kts | 189° |
| 2026-05-07 20:19 | 51.60604 | -2.87644 | 36101 ft | 429 kts | 189° |
| 2026-05-07 20:19 | 51.57677 | -2.88254 | 36299 ft | 430 kts | 189° |
| 2026-05-07 20:20 | 51.54708 | -2.88870 | 36506 ft | 431 kts | 189° |
| 2026-05-07 20:20 | 51.51733 | -2.89491 | 36716 ft | 431 kts | 189° |
| 2026-05-07 20:20 | 51.48761 | -2.90118 | 36899 ft | 432 kts | 189° |
| 2026-05-07 20:20 | 51.45780 | -2.90749 | 37086 ft | 432 kts | 189° |
| 2026-05-07 20:21 | 51.42794 | -2.91380 | 37257 ft | 433 kts | 189° |
| 2026-05-07 20:21 | 51.39808 | -2.92009 | 37444 ft | 433 kts | 189° |
| 2026-05-07 20:21 | 51.36818 | -2.92637 | 37605 ft | 434 kts | 189° |
| 2026-05-07 20:21 | 51.33821 | -2.93265 | 37781 ft | 435 kts | 189° |
| 2026-05-07 20:22 | 51.30818 | -2.93895 | 37975 ft | 435 kts | 189° |
| 2026-05-07 20:22 | 51.24838 | -2.95150 | 38047 ft | 437 kts | 189° |
| 2026-05-07 20:23 | 51.18802 | -2.96411 | 38047 ft | 437 kts | 189° |
| 2026-05-07 20:23 | 51.12767 | -2.97676 | 38049 ft | 437 kts | 189° |
| 2026-05-07 20:24 | 51.06730 | -2.98934 | 38053 ft | 437 kts | 189° |
| 2026-05-07 20:24 | 51.00692 | -3.00180 | 38053 ft | 437 kts | 189° |
| 2026-05-07 20:25 | 50.94657 | -3.01432 | 38052 ft | 438 kts | 189° |
| 2026-05-07 20:25 | 50.88613 | -3.02689 | 38046 ft | 438 kts | 189° |
| 2026-05-07 20:26 | 50.82609 | -3.03916 | 38033 ft | 438 kts | 189° |
| 2026-05-07 20:26 | 50.76556 | -3.05153 | 38048 ft | 438 kts | 189° |
| 2026-05-07 20:27 | 50.70507 | -3.06396 | 38052 ft | 438 kts | 189° |
| 2026-05-07 20:27 | 50.64461 | -3.07641 | 38064 ft | 438 kts | 189° |
| 2026-05-07 20:28 | 50.58412 | -3.08878 | 38044 ft | 438 kts | 189° |
| 2026-05-07 20:28 | 50.52401 | -3.10085 | 38040 ft | 439 kts | 189° |
| 2026-05-07 20:29 | 50.46346 | -3.11307 | 38028 ft | 439 kts | 189° |
| 2026-05-07 20:29 | 50.40291 | -3.12531 | 38048 ft | 439 kts | 189° |
| 2026-05-07 20:30 | 50.34421 | -3.14866 | 38021 ft | 435 kts | 204° |
| 2026-05-07 20:30 | 50.28824 | -3.18445 | 38028 ft | 435 kts | 204° |
| 2026-05-07 20:31 | 50.23212 | -3.22006 | 38054 ft | 435 kts | 204° |
| 2026-05-07 20:31 | 50.17632 | -3.25528 | 38038 ft | 436 kts | 204° |
| 2026-05-07 20:32 | 50.12008 | -3.29075 | 38033 ft | 436 kts | 204° |
| 2026-05-07 20:32 | 50.06385 | -3.32611 | 38031 ft | 436 kts | 203° |
| 2026-05-07 20:33 | 50.00758 | -3.36127 | 38026 ft | 436 kts | 203° |
| 2026-05-07 20:33 | 49.95125 | -3.39632 | 38027 ft | 436 kts | 203° |
| 2026-05-07 20:34 | 49.89535 | -3.43126 | 38014 ft | 436 kts | 204° |
| 2026-05-07 20:34 | 49.83906 | -3.46635 | 38017 ft | 436 kts | 203° |
| 2026-05-07 20:35 | 49.78266 | -3.50139 | 38017 ft | 437 kts | 203° |
| 2026-05-07 20:35 | 49.75414 | -3.51728 | 37843 ft | 436 kts | 197° |
| 2026-05-07 20:35 | 49.72433 | -3.52614 | 37231 ft | 437 kts | 187° |
| 2026-05-07 20:35 | 49.69394 | -3.52655 | 36969 ft | 437 kts | 178° |
| 2026-05-07 20:36 | 49.66354 | -3.52367 | 37016 ft | 439 kts | 179° |
| 2026-05-07 20:36 | 49.60281 | -3.51910 | 37013 ft | 440 kts | 180° |
| 2026-05-07 20:37 | 49.54164 | -3.51500 | 37010 ft | 440 kts | 180° |
| 2026-05-07 20:37 | 49.48041 | -3.51068 | 37010 ft | 440 kts | 180° |
| 2026-05-07 20:38 | 49.41924 | -3.50618 | 37012 ft | 441 kts | 180° |
| 2026-05-07 20:38 | 49.35795 | -3.50166 | 37016 ft | 441 kts | 180° |
| 2026-05-07 20:39 | 49.29662 | -3.49721 | 37022 ft | 441 kts | 180° |
| 2026-05-07 20:39 | 49.23564 | -3.49272 | 37013 ft | 442 kts | 180° |
| 2026-05-07 20:40 | 49.17422 | -3.48820 | 37018 ft | 442 kts | 180° |
| 2026-05-07 20:40 | 49.11282 | -3.48377 | 37029 ft | 442 kts | 180° |
| 2026-05-07 20:41 | 49.05136 | -3.47929 | 37028 ft | 442 kts | 180° |
| 2026-05-07 20:41 | 48.99035 | -3.47489 | 37021 ft | 442 kts | 180° |
| 2026-05-07 20:42 | 48.92892 | -3.47051 | 37027 ft | 442 kts | 180° |
| 2026-05-07 20:42 | 48.86748 | -3.46613 | 37034 ft | 442 kts | 180° |
| 2026-05-07 20:43 | 48.80561 | -3.46167 | 37032 ft | 442 kts | 180° |
| 2026-05-07 20:43 | 48.74420 | -3.45729 | 37032 ft | 442 kts | 180° |
| 2026-05-07 20:44 | 48.68315 | -3.45289 | 37039 ft | 442 kts | 180° |
| 2026-05-07 20:44 | 48.62167 | -3.44856 | 37030 ft | 442 kts | 180° |
| 2026-05-07 20:45 | 48.56021 | -3.44421 | 37019 ft | 442 kts | 180° |
| 2026-05-07 20:45 | 48.49870 | -3.43993 | 37014 ft | 443 kts | 180° |
| 2026-05-07 20:46 | 48.43715 | -3.43553 | 37012 ft | 443 kts | 180° |
| 2026-05-07 20:46 | 48.37562 | -3.43117 | 37000 ft | 443 kts | 180° |
| 2026-05-07 20:47 | 48.31406 | -3.42692 | 36999 ft | 443 kts | 180° |
| 2026-05-07 20:47 | 48.25241 | -3.42255 | 37003 ft | 444 kts | 180° |
| 2026-05-07 20:48 | 48.19071 | -3.41818 | 37007 ft | 444 kts | 180° |
| 2026-05-07 20:48 | 48.12901 | -3.41382 | 36999 ft | 444 kts | 180° |
| 2026-05-07 20:49 | 48.06720 | -3.40948 | 37002 ft | 445 kts | 180° |
| 2026-05-07 20:49 | 48.01540 | -3.40594 | 37006 ft | 445 kts | 180° |
| 2026-05-07 20:50 | 47.95346 | -3.40170 | 36996 ft | 446 kts | 180° |
| 2026-05-07 20:50 | 47.89145 | -3.39738 | 37000 ft | 446 kts | 180° |
| 2026-05-07 20:51 | 47.82986 | -3.39313 | 37003 ft | 446 kts | 180° |
| 2026-05-07 20:51 | 47.76778 | -3.38887 | 37000 ft | 447 kts | 180° |
| 2026-05-07 20:52 | 47.70567 | -3.38468 | 36991 ft | 447 kts | 180° |
| 2026-05-07 20:52 | 47.64354 | -3.38045 | 36999 ft | 447 kts | 180° |
| 2026-05-07 20:53 | 47.58132 | -3.37616 | 37005 ft | 448 kts | 180° |
| 2026-05-07 20:53 | 47.51951 | -3.37191 | 36998 ft | 448 kts | 180° |
| 2026-05-07 20:54 | 47.45726 | -3.36761 | 37001 ft | 448 kts | 180° |
| 2026-05-07 20:54 | 47.39498 | -3.36345 | 37003 ft | 448 kts | 180° |
| 2026-05-07 20:55 | 47.33265 | -3.35930 | 37000 ft | 448 kts | 180° |
| 2026-05-07 20:55 | 47.27033 | -3.35504 | 37004 ft | 448 kts | 180° |
| 2026-05-07 20:56 | 47.20804 | -3.35088 | 37007 ft | 448 kts | 180° |
| 2026-05-07 20:56 | 47.14619 | -3.34666 | 37008 ft | 448 kts | 180° |
| 2026-05-07 20:57 | 47.08392 | -3.34241 | 37000 ft | 448 kts | 180° |
| 2026-05-07 20:57 | 47.02168 | -3.33828 | 36995 ft | 448 kts | 180° |
| 2026-05-07 20:58 | 46.95940 | -3.33415 | 37003 ft | 448 kts | 180° |
| 2026-05-07 20:58 | 46.89707 | -3.33005 | 36980 ft | 448 kts | 180° |
| 2026-05-07 20:59 | 46.83474 | -3.32594 | 36994 ft | 449 kts | 180° |
| 2026-05-07 20:59 | 46.77276 | -3.32181 | 37002 ft | 449 kts | 180° |
| 2026-05-07 21:00 | 46.71025 | -3.31770 | 37004 ft | 449 kts | 180° |
| 2026-05-07 21:00 | 46.64782 | -3.31367 | 37008 ft | 449 kts | 180° |
| 2026-05-07 21:01 | 46.58540 | -3.30956 | 37008 ft | 449 kts | 180° |
| 2026-05-07 21:01 | 46.52295 | -3.30541 | 37006 ft | 449 kts | 180° |
| 2026-05-07 21:02 | 46.46098 | -3.30129 | 36996 ft | 449 kts | 180° |
| 2026-05-07 21:02 | 46.39856 | -3.29731 | 36997 ft | 449 kts | 180° |
| 2026-05-07 21:03 | 46.33610 | -3.29320 | 36995 ft | 449 kts | 180° |
| 2026-05-07 21:03 | 46.27365 | -3.28902 | 36983 ft | 449 kts | 180° |
| 2026-05-07 21:04 | 46.21117 | -3.28500 | 36986 ft | 449 kts | 180° |
| 2026-05-07 21:04 | 46.14909 | -3.28109 | 36987 ft | 450 kts | 180° |
| 2026-05-07 21:05 | 46.08656 | -3.27704 | 36973 ft | 450 kts | 180° |
| 2026-05-07 21:05 | 46.02397 | -3.27303 | 36979 ft | 450 kts | 180° |
| 2026-05-07 21:06 | 45.96139 | -3.26894 | 36983 ft | 450 kts | 180° |
| 2026-05-07 21:06 | 45.89884 | -3.26480 | 36975 ft | 450 kts | 180° |
| 2026-05-07 21:07 | 45.83671 | -3.26087 | 36970 ft | 450 kts | 180° |
| 2026-05-07 21:07 | 45.77412 | -3.25691 | 36969 ft | 450 kts | 180° |
| 2026-05-07 21:08 | 45.71159 | -3.25296 | 36957 ft | 450 kts | 180° |
| 2026-05-07 21:08 | 45.64896 | -3.24903 | 36959 ft | 451 kts | 180° |
| 2026-05-07 21:09 | 45.58669 | -3.24503 | 36966 ft | 451 kts | 180° |
| 2026-05-07 21:09 | 45.52397 | -3.24104 | 36961 ft | 451 kts | 180° |
| 2026-05-07 21:10 | 45.46123 | -3.23708 | 36959 ft | 451 kts | 180° |
| 2026-05-07 21:10 | 45.39851 | -3.23310 | 36960 ft | 452 kts | 180° |
| 2026-05-07 21:11 | 45.33570 | -3.22908 | 36951 ft | 452 kts | 181° |
| 2026-05-07 21:11 | 45.24190 | -3.22326 | 36957 ft | 452 kts | 181° |
| 2026-05-07 21:12 | 45.17901 | -3.21936 | 36961 ft | 452 kts | 181° |
| 2026-05-07 21:12 | 45.11610 | -3.21549 | 36954 ft | 453 kts | 181° |
| 2026-05-07 21:13 | 45.05318 | -3.21157 | 36951 ft | 453 kts | 181° |
| 2026-05-07 21:13 | 44.99024 | -3.20757 | 36953 ft | 453 kts | 181° |
| 2026-05-07 21:14 | 44.92776 | -3.20364 | 36938 ft | 452 kts | 181° |
| 2026-05-07 21:14 | 44.86487 | -3.19980 | 36940 ft | 452 kts | 181° |
| 2026-05-07 21:15 | 44.80198 | -3.19605 | 36938 ft | 452 kts | 181° |
| 2026-05-07 21:15 | 44.73906 | -3.19217 | 36941 ft | 453 kts | 181° |
| 2026-05-07 21:16 | 44.67610 | -3.18816 | 36940 ft | 453 kts | 181° |
| 2026-05-07 21:16 | 44.61363 | -3.18440 | 36936 ft | 453 kts | 181° |
| 2026-05-07 21:17 | 44.55070 | -3.18063 | 36762 ft | 453 kts | 181° |
| 2026-05-07 21:17 | 44.51913 | -3.17870 | 36499 ft | 454 kts | 181° |
| 2026-05-07 21:17 | 44.48761 | -3.17680 | 36243 ft | 454 kts | 181° |
| 2026-05-07 21:18 | 44.45603 | -3.17489 | 35989 ft | 455 kts | 181° |
| 2026-05-07 21:18 | 44.42432 | -3.17296 | 35739 ft | 456 kts | 181° |
| 2026-05-07 21:18 | 44.39302 | -3.17104 | 35494 ft | 457 kts | 181° |
| 2026-05-07 21:18 | 44.36119 | -3.16909 | 35234 ft | 458 kts | 181° |
| 2026-05-07 21:19 | 44.32926 | -3.16710 | 34984 ft | 460 kts | 182° |
| 2026-05-07 21:19 | 44.29727 | -3.16514 | 34745 ft | 461 kts | 182° |
| 2026-05-07 21:19 | 44.26518 | -3.16319 | 34503 ft | 462 kts | 182° |
| 2026-05-07 21:19 | 44.23303 | -3.16126 | 34263 ft | 463 kts | 182° |
| 2026-05-07 21:20 | 44.20080 | -3.15935 | 33974 ft | 464 kts | 182° |
| 2026-05-07 21:20 | 44.16834 | -3.15742 | 32902 ft | 470 kts | 182° |
| 2026-05-07 21:20 | 44.13549 | -3.15546 | 31879 ft | 474 kts | 182° |
| 2026-05-07 21:20 | 44.10233 | -3.15349 | 30799 ft | 480 kts | 181° |
| 2026-05-07 21:21 | 44.06930 | -3.15150 | 29996 ft | 480 kts | 181° |
| 2026-05-07 21:21 | 44.03619 | -3.14611 | 29268 ft | 479 kts | 172° |
| 2026-05-07 21:21 | 44.00375 | -3.13660 | 28551 ft | 474 kts | 171° |
| 2026-05-07 21:21 | 43.97166 | -3.12720 | 27835 ft | 468 kts | 171° |
| 2026-05-07 21:22 | 43.94002 | -3.11799 | 27157 ft | 462 kts | 172° |
| 2026-05-07 21:22 | 43.90871 | -3.10896 | 26474 ft | 457 kts | 172° |
| 2026-05-07 21:22 | 43.87772 | -3.10007 | 25800 ft | 452 kts | 171° |
| 2026-05-07 21:22 | 43.84707 | -3.09127 | 25128 ft | 448 kts | 171° |
| 2026-05-07 21:23 | 43.81673 | -3.08254 | 24466 ft | 443 kts | 171° |
| 2026-05-07 21:23 | 43.78718 | -3.07400 | 23912 ft | 437 kts | 171° |
| 2026-05-07 21:23 | 43.75747 | -3.06541 | 23238 ft | 433 kts | 171° |
| 2026-05-07 21:23 | 43.72824 | -3.05698 | 22589 ft | 427 kts | 171° |
| 2026-05-07 21:24 | 43.70005 | -3.04494 | 22035 ft | 424 kts | 156° |
| 2026-05-07 21:24 | 43.67621 | -3.02128 | 21422 ft | 425 kts | 136° |
| 2026-05-07 21:24 | 43.66006 | -2.98711 | 20716 ft | 428 kts | 112° |
| 2026-05-07 21:24 | 43.65382 | -2.94746 | 20221 ft | 423 kts | 94° |
| 2026-05-07 21:25 | 43.65296 | -2.90709 | 19666 ft | 418 kts | 94° |
| 2026-05-07 21:25 | 43.65079 | -2.86785 | 19056 ft | 414 kts | 97° |
| 2026-05-07 21:25 | 43.64649 | -2.82809 | 17882 ft | 424 kts | 102° |
| 2026-05-07 21:25 | 43.63928 | -2.78818 | 16687 ft | 431 kts | 108° |
| 2026-05-07 21:26 | 43.62930 | -2.74924 | 15902 ft | 428 kts | 114° |
| 2026-05-07 21:26 | 43.61715 | -2.71206 | 15199 ft | 422 kts | 118° |
| 2026-05-07 21:26 | 43.60310 | -2.67686 | 14536 ft | 416 kts | 123° |
| 2026-05-07 21:26 | 43.58726 | -2.64381 | 13885 ft | 410 kts | 128° |
| 2026-05-07 21:27 | 43.56977 | -2.61316 | 13196 ft | 404 kts | 132° |
| 2026-05-07 21:27 | 43.55080 | -2.58508 | 12478 ft | 398 kts | 137° |
| 2026-05-07 21:27 | 43.53079 | -2.55985 | 11768 ft | 392 kts | 141° |
| 2026-05-07 21:27 | 43.50941 | -2.53681 | 11060 ft | 387 kts | 145° |
| 2026-05-07 21:28 | 43.48713 | -2.51638 | 10365 ft | 383 kts | 149° |
| 2026-05-07 21:28 | 43.46406 | -2.49846 | 9643 ft | 378 kts | 153° |
| 2026-05-07 21:28 | 43.44039 | -2.48325 | 8889 ft | 374 kts | 158° |
| 2026-05-07 21:28 | 43.41607 | -2.47095 | 8136 ft | 370 kts | 163° |
| 2026-05-07 21:29 | 43.39141 | -2.46146 | 7400 ft | 366 kts | 167° |
| 2026-05-07 21:29 | 43.36689 | -2.45435 | 7085 ft | 350 kts | 170° |
| 2026-05-07 21:29 | 43.34351 | -2.44941 | 6960 ft | 330 kts | 173° |
| 2026-05-07 21:29 | 43.32066 | -2.44656 | 6838 ft | 312 kts | 177° |
| 2026-05-07 21:30 | 43.29978 | -2.44626 | 6711 ft | 296 kts | 186° |
| 2026-05-07 21:30 | 43.28080 | -2.45327 | 6391 ft | 276 kts | 205° |
| 2026-05-07 21:30 | 43.26416 | -2.46531 | 5968 ft | 262 kts | 207° |
| 2026-05-07 21:30 | 43.24875 | -2.47664 | 5812 ft | 240 kts | 207° |
| 2026-05-07 21:31 | 43.23464 | -2.48697 | 5710 ft | 220 kts | 207° |
| 2026-05-07 21:31 | 43.22148 | -2.49658 | 5613 ft | 209 kts | 207° |
| 2026-05-07 21:31 | 43.20915 | -2.50555 | 5526 ft | 193 kts | 207° |
| 2026-05-07 21:31 | 43.19757 | -2.51398 | 5471 ft | 185 kts | 206° |
| 2026-05-07 21:32 | 43.18692 | -2.52367 | 5385 ft | 185 kts | 221° |
| 2026-05-07 21:32 | 43.17924 | -2.53783 | 5314 ft | 187 kts | 241° |
| 2026-05-07 21:32 | 43.17574 | -2.55510 | 5320 ft | 192 kts | 262° |
| 2026-05-07 21:32 | 43.17716 | -2.57342 | 5317 ft | 197 kts | 284° |
| 2026-05-07 21:33 | 43.18296 | -2.59061 | 5324 ft | 199 kts | 293° |
| 2026-05-07 21:33 | 43.18928 | -2.60754 | 5301 ft | 200 kts | 293° |
| 2026-05-07 21:33 | 43.19561 | -2.62454 | 5084 ft | 200 kts | 293° |
| 2026-05-07 21:33 | 43.20189 | -2.64148 | 4825 ft | 199 kts | 293° |
| 2026-05-07 21:34 | 43.20813 | -2.65832 | 4524 ft | 197 kts | 293° |
| 2026-05-07 21:34 | 43.21421 | -2.67475 | 4240 ft | 191 kts | 294° |
| 2026-05-07 21:34 | 43.22018 | -2.69089 | 3944 ft | 188 kts | 294° |
| 2026-05-07 21:34 | 43.22592 | -2.70641 | 3656 ft | 182 kts | 294° |
| 2026-05-07 21:35 | 43.23145 | -2.72136 | 3414 ft | 171 kts | 294° |
| 2026-05-07 21:35 | 43.23668 | -2.73552 | 3147 ft | 158 kts | 293° |
| 2026-05-07 21:35 | 43.24142 | -2.74836 | 2919 ft | 150 kts | 294° |
| 2026-05-07 21:35 | 43.24607 | -2.76097 | 2699 ft | 147 kts | 294° |
| 2026-05-07 21:36 | 43.25064 | -2.77340 | 2478 ft | 146 kts | 294° |
| 2026-05-07 21:36 | 43.25525 | -2.78589 | 2258 ft | 145 kts | 295° |
| 2026-05-07 21:36 | 43.25986 | -2.79842 | 2048 ft | 144 kts | 295° |
| 2026-05-07 21:36 | 43.26438 | -2.81069 | 1815 ft | 144 kts | 295° |
| 2026-05-07 21:37 | 43.26890 | -2.82296 | 1613 ft | 143 kts | 295° |
| 2026-05-07 21:37 | 43.27340 | -2.83521 | 1393 ft | 142 kts | 296° |
| 2026-05-07 21:37 | 43.27782 | -2.84721 | 1178 ft | 140 kts | 297° |
| 2026-05-07 21:37 | 43.28220 | -2.85914 | 963 ft | 140 kts | 297° |
| 2026-05-07 21:38 | 43.28660 | -2.87110 | 747 ft | 140 kts | 297° |
| 2026-05-07 21:38 | 43.29099 | -2.88306 | 526 ft | 140 kts | 297° |
| 2026-05-07 21:38 | 43.29543 | -2.89503 | 259 ft | 141 kts | 297° |
| 2026-05-07 21:38 | 43.29999 | -2.90692 | 137 ft | 140 kts | 287° |
| 2026-05-07 21:39 | 43.30468 | -2.91943 | 432 ft | 162 kts | 296° |
| 2026-05-07 21:39 | 43.30742 | -2.93460 | 1250 ft | 168 kts | 259° |
| 2026-05-07 21:39 | 43.30098 | -2.94766 | 2119 ft | 178 kts | 210° |
| 2026-05-07 21:39 | 43.28844 | -2.94976 | 2772 ft | 199 kts | 163° |
| 2026-05-07 21:40 | 43.27752 | -2.93779 | 3697 ft | 210 kts | 124° |
| 2026-05-07 21:40 | 43.27352 | -2.91804 | 4707 ft | 225 kts | 90° |
| 2026-05-07 21:40 | 43.27793 | -2.89728 | 5459 ft | 233 kts | 59° |
| 2026-05-07 21:40 | 43.28863 | -2.88031 | 5930 ft | 238 kts | 49° |
| 2026-05-07 21:41 | 43.29949 | -2.86327 | 5995 ft | 236 kts | 51° |
| 2026-05-07 21:41 | 43.31014 | -2.84621 | 6016 ft | 235 kts | 51° |
| 2026-05-07 21:41 | 43.32062 | -2.82903 | 6006 ft | 234 kts | 56° |
| 2026-05-07 21:41 | 43.32675 | -2.80871 | 5984 ft | 230 kts | 84° |
| 2026-05-07 21:42 | 43.32624 | -2.78713 | 5968 ft | 224 kts | 110° |
| 2026-05-07 21:42 | 43.32043 | -2.76877 | 5975 ft | 203 kts | 120° |
| 2026-05-07 21:42 | 43.31402 | -2.75198 | 5979 ft | 196 kts | 121° |
| 2026-05-07 21:42 | 43.30760 | -2.73549 | 5994 ft | 196 kts | 121° |
| 2026-05-07 21:43 | 43.30117 | -2.71907 | 5992 ft | 195 kts | 121° |
| 2026-05-07 21:43 | 43.29474 | -2.70266 | 5989 ft | 195 kts | 121° |
| 2026-05-07 21:43 | 43.28831 | -2.68625 | 5978 ft | 195 kts | 121° |
| 2026-05-07 21:43 | 43.28190 | -2.66987 | 5981 ft | 195 kts | 122° |
| 2026-05-07 21:44 | 43.27561 | -2.65338 | 5987 ft | 195 kts | 121° |
| 2026-05-07 21:44 | 43.26939 | -2.63703 | 5979 ft | 196 kts | 121° |
| 2026-05-07 21:44 | 43.26303 | -2.62027 | 5989 ft | 195 kts | 121° |
| 2026-05-07 21:44 | 43.25684 | -2.60398 | 5989 ft | 195 kts | 121° |
| 2026-05-07 21:45 | 43.25058 | -2.58750 | 5973 ft | 195 kts | 121° |
| 2026-05-07 21:45 | 43.24426 | -2.57078 | 5973 ft | 195 kts | 120° |
| 2026-05-07 21:45 | 43.23805 | -2.55450 | 6020 ft | 195 kts | 121° |
| 2026-05-07 21:45 | 43.23157 | -2.53820 | 5977 ft | 192 kts | 126° |
| 2026-05-07 21:46 | 43.22172 | -2.52712 | 5595 ft | 183 kts | 163° |
| 2026-05-07 21:46 | 43.20951 | -2.52819 | 5493 ft | 181 kts | 205° |
| 2026-05-07 21:46 | 43.20082 | -2.54059 | 5493 ft | 187 kts | 244° |
| 2026-05-07 21:46 | 43.19912 | -2.55835 | 5499 ft | 187 kts | 268° |
| 2026-05-07 21:47 | 43.19992 | -2.57545 | 5505 ft | 175 kts | 271° |
| 2026-05-07 21:47 | 43.20091 | -2.59285 | 5737 ft | 190 kts | 268° |
| 2026-05-07 21:47 | 43.19690 | -2.60963 | 5935 ft | 188 kts | 227° |
| 2026-05-07 21:47 | 43.18600 | -2.61802 | 5996 ft | 185 kts | 188° |
| 2026-05-07 21:48 | 43.17359 | -2.61438 | 5994 ft | 189 kts | 149° |
| 2026-05-07 21:48 | 43.16587 | -2.59986 | 5983 ft | 197 kts | 109° |
| 2026-05-07 21:48 | 43.16336 | -2.58131 | 5980 ft | 197 kts | 109° |
| 2026-05-07 21:48 | 43.15882 | -2.56366 | 6007 ft | 196 kts | 116° |
| 2026-05-07 21:49 | 43.15572 | -2.54548 | 6001 ft | 202 kts | 89° |
| 2026-05-07 21:49 | 43.16102 | -2.52760 | 5995 ft | 209 kts | 52° |
| 2026-05-07 21:49 | 43.17102 | -2.51308 | 5980 ft | 210 kts | 49° |
| 2026-05-07 21:49 | 43.18056 | -2.49826 | 5997 ft | 210 kts | 51° |
| 2026-05-07 21:50 | 43.18889 | -2.48217 | 5984 ft | 206 kts | 73° |
| 2026-05-07 21:50 | 43.18958 | -2.46330 | 5997 ft | 197 kts | 108° |
| 2026-05-07 21:50 | 43.18321 | -2.44739 | 5996 ft | 189 kts | 137° |
| 2026-05-07 21:50 | 43.17222 | -2.43825 | 5997 ft | 185 kts | 166° |
| 2026-05-07 21:51 | 43.15953 | -2.43762 | 6004 ft | 184 kts | 192° |
| 2026-05-07 21:51 | 43.14825 | -2.44585 | 6011 ft | 187 kts | 222° |
| 2026-05-07 21:51 | 43.14161 | -2.46095 | 6002 ft | 191 kts | 251° |
| 2026-05-07 21:51 | 43.14188 | -2.47919 | 5995 ft | 198 kts | 284° |
| 2026-05-07 21:52 | 43.14782 | -2.49632 | 6012 ft | 200 kts | 293° |
| 2026-05-07 21:52 | 43.15420 | -2.51318 | 6001 ft | 200 kts | 293° |
| 2026-05-07 21:52 | 43.16055 | -2.53014 | 5998 ft | 201 kts | 293° |
| 2026-05-07 21:52 | 43.16689 | -2.54716 | 5984 ft | 200 kts | 293° |
| 2026-05-07 21:53 | 43.17313 | -2.56395 | 5991 ft | 200 kts | 293° |
| 2026-05-07 21:53 | 43.17947 | -2.58103 | 5846 ft | 200 kts | 293° |
| 2026-05-07 21:53 | 43.18584 | -2.59818 | 5577 ft | 199 kts | 293° |
| 2026-05-07 21:53 | 43.19210 | -2.61506 | 5284 ft | 198 kts | 293° |
| 2026-05-07 21:54 | 43.19825 | -2.63165 | 5000 ft | 198 kts | 293° |
| 2026-05-07 21:54 | 43.20446 | -2.64842 | 4703 ft | 197 kts | 293° |
| 2026-05-07 21:54 | 43.21063 | -2.66508 | 4389 ft | 194 kts | 293° |
| 2026-05-07 21:54 | 43.21665 | -2.68135 | 4118 ft | 189 kts | 294° |
| 2026-05-07 21:55 | 43.22240 | -2.69687 | 3842 ft | 176 kts | 293° |
| 2026-05-07 21:55 | 43.22774 | -2.71131 | 3577 ft | 163 kts | 293° |
| 2026-05-07 21:55 | 43.23268 | -2.72466 | 3342 ft | 152 kts | 293° |
| 2026-05-07 21:55 | 43.23735 | -2.73732 | 3119 ft | 147 kts | 293° |
| 2026-05-07 21:56 | 43.24192 | -2.74973 | 2895 ft | 145 kts | 293° |
| 2026-05-07 21:56 | 43.24645 | -2.76203 | 2687 ft | 144 kts | 294° |
| 2026-05-07 21:56 | 43.25097 | -2.77429 | 2473 ft | 144 kts | 294° |
| 2026-05-07 21:56 | 43.25547 | -2.78650 | 2247 ft | 143 kts | 295° |
| 2026-05-07 21:57 | 43.25997 | -2.79872 | 2025 ft | 143 kts | 295° |
| 2026-05-07 21:57 | 43.26445 | -2.81089 | 1810 ft | 143 kts | 295° |
| 2026-05-07 21:57 | 43.26893 | -2.82304 | 1612 ft | 142 kts | 296° |
| 2026-05-07 21:57 | 43.27192 | -2.83119 | 1465 ft | 142 kts | 296° |
| 2026-05-07 21:58 | 43.27642 | -2.84341 | 1249 ft | 141 kts | 297° |
| 2026-05-07 21:58 | 43.28084 | -2.85541 | 1034 ft | 140 kts | 297° |
| 2026-05-07 21:58 | 43.28523 | -2.86735 | 816 ft | 141 kts | 297° |
| 2026-05-07 21:58 | 43.28964 | -2.87937 | 599 ft | 142 kts | 297° |
| 2026-05-07 21:59 | 43.29405 | -2.89138 | 380 ft | 140 kts | 297° |
| 2026-05-07 21:59 | 43.29841 | -2.90326 | 167 ft | 140 kts | 297° |
| 2026-05-07 21:59 | 43.30246 | -2.91433 | 124 ft | 113 kts | 296° |
| 2026-05-07 21:59 | 43.30533 | -2.92196 | 124 ft | 56 kts | 297° |
| 2026-05-07 22:00 | 43.30672 | -2.92469 | 122 ft | 27 kts | 336° |
| 2026-05-07 22:00 | 43.30793 | -2.92484 | 126 ft | 16 kts | 43° |
| 2026-05-07 22:00 | 43.30785 | -2.92401 | 123 ft | 6 kts | 114° |
| 2026-05-07 22:00 | 43.30772 | -2.92354 | 128 ft | 5 kts | 110° |
| 2026-05-07 22:01 | 43.30761 | -2.92320 | 128 ft | 3 kts | 116° |
| 2026-05-07 22:01 | 43.30752 | -2.92295 | 125 ft | 2 kts | 117° |
| 2026-05-07 22:01 | 43.30745 | -2.92278 | 127 ft | 2 kts | 121° |
| 2026-05-07 22:01 | 43.30740 | -2.92267 | 126 ft | 1 kts | 120° |
| 2026-05-07 22:02 | 43.30736 | -2.92256 | 124 ft | 2 kts | 119° |
| 2026-05-07 22:02 | 43.30729 | -2.92240 | 126 ft | 2 kts | 119° |
| 2026-05-07 22:02 | 43.30720 | -2.92216 | 124 ft | 3 kts | 118° |
| 2026-05-07 22:02 | 43.30706 | -2.92180 | 127 ft | 5 kts | 117° |
| 2026-05-07 22:03 | 43.30687 | -2.92130 | 127 ft | 7 kts | 117° |
| 2026-05-07 22:03 | 43.30661 | -2.92058 | 125 ft | 10 kts | 116° |
| 2026-05-07 22:03 | 43.30627 | -2.91957 | 124 ft | 13 kts | 115° |
| 2026-05-07 22:03 | 43.30579 | -2.91827 | 125 ft | 17 kts | 118° |
| 2026-05-07 22:04 | 43.30520 | -2.91668 | 124 ft | 20 kts | 115° |
| 2026-05-07 22:04 | 43.30458 | -2.91477 | 126 ft | 23 kts | 114° |
| 2026-05-07 22:04 | 43.30376 | -2.91269 | 124 ft | 26 kts | 119° |
| 2026-05-07 22:04 | 43.30312 | -2.91094 | 125 ft | 20 kts | 114° |
| 2026-05-07 22:05 | 43.30372 | -2.90991 | 123 ft | 15 kts | 22° |
| 2026-05-07 22:05 | 43.30407 | -2.90888 | 127 ft | 13 kts | 89° |
| 2026-05-07 22:05 | 43.30407 | -2.90811 | 127 ft | 5 kts | 104° |
| 2026-05-07 22:05 | 43.30410 | -2.90778 | 123 ft | 2 kts | 47° |
| 2026-05-07 22:06 | 43.30423 | -2.90768 | 126 ft | 2 kts | 30° |
| 2026-05-07 22:06 | 43.30432 | -2.90761 | 127 ft | 1 kts | 28° |
| 2026-05-07 22:06 | 43.30438 | -2.90757 | 124 ft | 1 kts | 27° |
| 2026-05-07 22:06 | 43.30441 | -2.90755 | 123 ft | 0 kts | 27° |
| 2026-05-07 22:07 | 43.30446 | -2.90751 | 127 ft | 3 kts | 27° |
| 2026-05-07 22:07 | 43.30460 | -2.90741 | 124 ft | 0 kts | 27° |
| 2026-05-07 22:08 | 43.30461 | -2.90741 | 124 ft | 1 kts | 26° |
| 2026-05-07 22:08 | 43.30462 | -2.90740 | 124 ft | 0 kts | 27° |